地図

経路データ

SID SEASON NUMBER BASIN SUBBASIN NAME ISO_TIME NATURE LAT LON WMO_WIND WMO_PRES WMO_AGENCY TRACK_TYPE DIST2LAND LANDFALL IFLAG USA_AGENCY USA_ATCF_ID USA_LAT USA_LON USA_RECORD USA_STATUS USA_WIND USA_PRES USA_SSHS USA_R34_NE USA_R34_SE USA_R34_SW USA_R34_NW USA_R50_NE USA_R50_SE USA_R50_SW USA_R50_NW USA_R64_NE USA_R64_SE USA_R64_SW USA_R64_NW USA_POCI USA_ROCI USA_RMW USA_EYE TOKYO_LAT TOKYO_LON TOKYO_GRADE TOKYO_WIND TOKYO_PRES TOKYO_R50_DIR TOKYO_R50_LONG TOKYO_R50_SHORT TOKYO_R30_DIR TOKYO_R30_LONG TOKYO_R30_SHORT TOKYO_LAND CMA_LAT CMA_LON CMA_CAT CMA_WIND CMA_PRES HKO_LAT HKO_LON HKO_CAT HKO_WIND HKO_PRES NEWDELHI_LAT NEWDELHI_LON NEWDELHI_GRADE NEWDELHI_WIND NEWDELHI_PRES NEWDELHI_CI NEWDELHI_DP NEWDELHI_POCI REUNION_LAT REUNION_LON REUNION_TYPE REUNION_WIND REUNION_PRES REUNION_TNUM REUNION_CI REUNION_RMW REUNION_R34_NE REUNION_R34_SE REUNION_R34_SW REUNION_R34_NW REUNION_R50_NE REUNION_R50_SE REUNION_R50_SW REUNION_R50_NW REUNION_R64_NE REUNION_R64_SE REUNION_R64_SW REUNION_R64_NW BOM_LAT BOM_LON BOM_TYPE BOM_WIND BOM_PRES BOM_TNUM BOM_CI BOM_RMW BOM_R34_NE BOM_R34_SE BOM_R34_SW BOM_R34_NW BOM_R50_NE BOM_R50_SE BOM_R50_SW BOM_R50_NW BOM_R64_NE BOM_R64_SE BOM_R64_SW BOM_R64_NW BOM_ROCI BOM_POCI BOM_EYE BOM_POS_METHOD BOM_PRES_METHOD NADI_LAT NADI_LON NADI_CAT NADI_WIND NADI_PRES WELLINGTON_LAT WELLINGTON_LON WELLINGTON_WIND WELLINGTON_PRES DS824_LAT DS824_LON DS824_STAGE DS824_WIND DS824_PRES TD9636_LAT TD9636_LON TD9636_STAGE TD9636_WIND TD9636_PRES TD9635_LAT TD9635_LON TD9635_WIND TD9635_PRES TD9635_ROCI NEUMANN_LAT NEUMANN_LON NEUMANN_CLASS NEUMANN_WIND NEUMANN_PRES MLC_LAT MLC_LON MLC_CLASS MLC_WIND MLC_PRES USA_GUST BOM_GUST BOM_GUST_PER REUNION_GUST REUNION_GUST_PER USA_SEAHGT USA_SEARAD_NE USA_SEARAD_SE USA_SEARAD_SW USA_SEARAD_NW STORM_SPEED STORM_DIR
1960302N08090 1960 84 NI BB NOT_NAMED 1960-10-27 18:00:00 TS 7.50000 90.0000 main 613 613 O________O____ jtwc_io IO091960 7.50000 90.0000 -1 7.50000 90.0000 TC 2 273
1960302N08090 1960 84 NI BB NOT_NAMED 1960-10-27 21:00:00 TS 7.50499 89.8850 main 623 623 P________P____ IO091960 7.50499 89.8850 -1 7.50499 89.8850 TC 3 289
1960302N08090 1960 84 NI BB NOT_NAMED 1960-10-28 00:00:00 TS 7.60000 89.7000 main 648 648 O________O____ jtwc_io IO091960 7.60000 89.7000 -1 7.60000 89.7000 TC 25 6 305
1960302N08090 1960 84 NI BB NOT_NAMED 1960-10-28 03:00:00 TS 7.84222 89.3955 main 686 686 P________PO___ IO091960 7.84749 89.3950 -1 7.84749 89.3950 TC 25 7.80000 89.4000 1 9 310
1960302N08090 1960 84 NI BB NOT_NAMED 1960-10-28 06:00:00 TS 8.19696 88.9901 main 744 744 O________OP___ jtwc_io IO091960 8.20000 89.0000 -1 8.20000 89.0000 TC 25 8.18480 88.9505 1 11 311
1960302N08090 1960 84 NI BB NOT_NAMED 1960-10-28 09:00:00 TS 8.57698 88.5392 main 746 709 P________PP___ IO091960 8.57755 88.5500 -1 8.57755 88.5500 TC 25 8.57548 88.5105 1 12 312
1960302N08090 1960 84 NI BB NOT_NAMED 1960-10-28 12:00:00 TS 8.99280 88.0967 main 711 679 O________OP___ jtwc_io IO091960 9.00000 88.1000 -1 9.00000 88.1000 TC 25 8.97840 88.0902 1 12 316
1960302N08090 1960 84 NI BB NOT_NAMED 1960-10-28 15:00:00 TS 9.42829 87.7183 main 679 663 P________PO___ IO091960 9.44244 87.7274 -1 9.44244 87.7274 TC 25 9.40000 87.7000 1 11 322
1960302N08090 1960 84 NI BB NOT_NAMED 1960-10-28 18:00:00 TS 9.88173 87.3831 main 667 651 O________OP___ jtwc_io IO091960 9.90000 87.4000 -1 9.90000 87.4000 TC 25 9.84519 87.3494 1 11 325
1960302N08090 1960 84 NI BB NOT_NAMED 1960-10-28 21:00:00 TS 10.3325 87.0667 main 656 645 P________PP___ IO091960 10.3425 87.0774 -1 10.3425 87.0774 TC 25 10.3124 87.0451 1 11 328
1960302N08090 1960 84 NI BB NOT_NAMED 1960-10-29 00:00:00 TS 10.7995 86.7977 main 650 645 O________OP___ jtwc_io IO091960 10.8000 86.8000 -1 10.8000 86.8000 TC 25 10.7984 86.7932 1 11 333
1960302N08090 1960 84 NI BB NOT_NAMED 1960-10-29 03:00:00 TS 11.2900 86.5750 main 656 652 P________PO___ IO091960 11.2850 86.5625 -1 11.2850 86.5625 TC 25 11.3000 86.6000 1 11 339
1960302N08090 1960 84 NI BB NOT_NAMED 1960-10-29 06:00:00 TS 11.8062 86.4130 main 666 645 O________OP___ jtwc_io IO091960 11.8000 86.4000 -1 11.8000 86.4000 TC 25 11.8186 86.4390 1 11 347
1960302N08090 1960 84 NI BB NOT_NAMED 1960-10-29 09:00:00 TS 12.3499 86.3258 main 645 597 P________PP___ IO091960 12.3500 86.3199 -1 12.3500 86.3199 TC 30 12.3498 86.3375 1 11 354
1960302N08090 1960 84 NI BB NOT_NAMED 1960-10-29 12:00:00 TS 12.8937 86.2974 main 597 559 O________OP___ jtwc_io IO091960 12.9000 86.3000 -1 12.9000 86.3000 TC 35 12.8811 86.2923 1 11 358
1960302N08090 1960 84 NI BB NOT_NAMED 1960-10-29 15:00:00 TS 13.4100 86.2850 main 559 524 P________PO___ IO091960 13.4150 86.2775 -1 13.4150 86.2775 TC 35 13.4000 86.3000 2 10 1
1960302N08090 1960 84 NI BB NOT_NAMED 1960-10-29 18:00:00 TS 13.8883 86.3032 main 524 503 O________OP___ jtwc_io IO091960 13.9000 86.3000 -1 13.9000 86.3000 TC 35 13.8648 86.3096 2 9 5
1960302N08090 1960 84 NI BB NOT_NAMED 1960-10-29 21:00:00 TS 14.3349 86.3663 main 503 467 P________PP___ IO091960 14.3425 86.3626 -1 14.3425 86.3626 TC 35 14.3197 86.3735 2 9 12
1960302N08090 1960 84 NI BB NOT_NAMED 1960-10-30 00:00:00 TS 14.7966 86.5002 main 467 435 O________OP___ jtwc_io IO091960 14.8000 86.5000 -1 14.8000 86.5000 TC 35 14.7897 86.5007 2 10 19
1960302N08090 1960 84 NI BB NOT_NAMED 1960-10-30 03:00:00 TS 15.3133 86.7084 main 435 408 P________PO___ IO091960 15.3200 86.7126 -1 15.3200 86.7126 TC 35 15.3000 86.7000 3 12 23
1960302N08090 1960 84 NI BB NOT_NAMED 1960-10-30 06:00:00 TS 15.9062 86.9910 main 408 384 O________OP___ jtwc_io IO091960 15.9000 87.0000 -1 15.9000 87.0000 TC 35 15.9186 86.9731 3 14 25
1960302N08090 1960 84 NI BB NOT_NAMED 1960-10-30 09:00:00 TS 16.5576 87.3237 main 377 341 P________PP___ IO091960 16.5500 87.3275 -1 16.5500 87.3275 TC 35 16.5727 87.3162 3 15 28
1960302N08090 1960 84 NI BB NOT_NAMED 1960-10-30 12:00:00 TS 17.2052 87.7004 main 341 304 O________OP___ jtwc_io IO091960 17.2000 87.7000 -1 17.2000 87.7000 TC 35 17.2155 87.7013 3 14 31
1960302N08090 1960 84 NI BB NOT_NAMED 1960-10-30 15:00:00 TS 17.7917 88.1000 main 304 291 P________PO___ IO091960 17.7875 88.1000 -1 17.7875 88.1000 TC 35 17.8000 88.1000 3 13 35
1960302N08090 1960 84 NI BB NOT_NAMED 1960-10-30 18:00:00 TS 18.2967 88.4954 main 291 283 O________OP___ jtwc_io IO091960 18.3000 88.5000 -1 18.3000 88.5000 TC 35 18.2919 88.4884 3 12 38
1960302N08090 1960 84 NI BB NOT_NAMED 1960-10-30 21:00:00 TS 18.7165 88.8635 main 291 279 P________PP___ IO091960 18.7251 88.8623 -1 18.7251 88.8623 TC 50 18.7052 88.8651 3 10 41
1960302N08090 1960 84 NI BB NOT_NAMED 1960-10-31 00:00:00 TS 19.0829 89.2171 main 279 251 O________OP___ jtwc_io IO091960 19.1000 89.2000 -1 19.1000 89.2000 TC 65 19.0659 89.2341 3 10 45
1960302N08090 1960 84 NI BB NOT_NAMED 1960-10-31 03:00:00 NR 19.4000 89.6000 main 251 __________O___ IO091960 -1 TC 19.4000 89.6000 4 10 49

IBTrACS Databaseについて

本データベースは、米国NOAAが公開する1842年以降の世界の熱帯低気圧のベストトラックデータアーカイブInternational Best Track Archive for Climate Stewardship (IBTrACS)を、ウェブで閲覧しやすい形式に変換したものです。

最終更新日:2021-10-27